Time;durP1;ratioP1;P1;durP2;ratioP2;P2;SDS_P1;SDS_P2;PMS_P1;PMS_P2;Temp;Humidity;BMP_temperature;BMP_pressure;BME280_temperature;BME280_humidity;BME280_pressure;Samples;Min_cycle;Max_cycle;Signal;HPM_P1;HPM_P2
2022/07/15 00:00:10;;;;;;;2.87;2.53;;;23.70;49.50;;;-142.21;51.55;112049.66;5092799;28;20224;-78
2022/07/15 00:02:37;;;;;;;3.70;2.47;;;23.60;49.50;;;-142.21;51.77;112049.66;5111894;28;20291;-78
2022/07/15 00:05:09;;;;;;;3.57;2.70;;;23.50;49.40;;;-142.21;51.43;112049.66;5093068;28;20278;-79
2022/07/15 00:07:38;;;;;;;2.60;2.37;;;23.50;49.30;;;-142.21;52.00;112049.66;5115267;28;20192;-78
2022/07/15 00:10:18;;;;;;;3.33;2.73;;;23.40;49.60;;;-142.21;52.34;112049.66;5113862;28;20299;-78
2022/07/15 00:12:50;;;;;;;3.30;2.83;;;23.40;49.80;;;-142.21;52.53;112049.66;5097979;28;20196;-78
2022/07/15 00:15:21;;;;;;;3.03;2.43;;;23.30;49.80;;;-142.21;52.39;112049.66;5114591;28;20333;-78
2022/07/15 00:17:49;;;;;;;3.37;2.90;;;23.30;50.40;;;-142.21;52.89;112049.66;5115762;28;20203;-78
2022/07/15 00:20:17;;;;;;;3.70;2.63;;;23.30;49.90;;;-142.21;53.48;112049.66;5096633;28;20219;-78
2022/07/15 00:22:45;;;;;;;2.70;2.40;;;23.20;50.10;;;-142.21;54.17;112049.66;5115398;28;20208;-78
2022/07/15 00:25:14;;;;;;;4.07;2.50;;;23.10;50.30;;;-142.21;54.61;112049.66;5113946;28;20207;-78
2022/07/15 00:27:54;;;;;;;4.80;2.90;;;23.00;50.50;;;-142.21;55.25;112049.66;5115067;28;20200;-78
2022/07/15 00:30:23;;;;;;;3.77;2.50;;;22.90;50.90;;;-142.21;55.23;112049.66;5096805;28;20678;-78
2022/07/15 00:32:50;;;;;;;3.30;3.00;;;22.90;50.60;;;-142.21;54.95;112049.66;5115347;28;20203;-77
2022/07/15 00:35:17;;;;;;;3.10;2.80;;;22.80;50.50;;;-142.21;54.66;112049.66;5114364;28;20386;-79
2022/07/15 00:37:45;;;;;;;5.07;3.00;;;22.80;50.40;;;-142.21;55.22;112049.66;5114466;28;20207;-77
2022/07/15 00:40:13;;;;;;;4.43;2.67;;;22.80;50.60;;;-142.21;56.18;112049.66;5114247;28;20226;-79
2022/07/15 00:42:46;;;;;;;3.63;2.90;;;22.80;50.90;;;-142.21;57.28;112049.66;5096897;28;20667;-78
2022/07/15 00:45:18;;;;;;;2.87;2.57;;;22.70;51.70;;;-142.21;57.98;112049.66;5114357;28;20191;-79
2022/07/15 00:47:47;;;;;;;3.07;2.60;;;22.70;51.40;;;-142.21;58.08;112049.66;5114840;28;20245;-78
2022/07/15 00:50:15;;;;;;;2.87;2.57;;;22.60;51.30;;;-142.21;58.28;112049.66;5108346;28;20318;-78
2022/07/15 00:52:46;;;;;;;5.17;2.60;;;22.50;51.40;;;-142.21;58.35;112049.66;5114952;28;20196;-77
2022/07/15 00:55:15;;;;;;;2.93;2.60;;;22.50;51.40;;;-142.21;59.00;112049.66;5101971;28;20223;-78
2022/07/15 00:57:46;;;;;;;4.40;3.07;;;22.50;51.70;;;-142.21;59.74;112049.66;5114842;28;20584;-78
2022/07/15 01:00:16;;;;;;;4.83;2.60;;;22.40;52.50;;;-142.21;59.68;112049.66;5113955;28;20235;-77
2022/07/15 01:02:50;;;;;;;4.10;2.80;;;22.30;52.00;;;-142.21;59.89;112049.66;5101700;28;20578;-78
2022/07/15 01:05:19;;;;;;;3.23;2.93;;;22.30;52.00;;;-142.21;60.66;112049.66;5063552;28;20278;-78
2022/07/15 01:07:49;;;;;;;3.87;2.83;;;22.30;52.30;;;-142.21;61.04;112049.66;5114555;28;20215;-78
2022/07/15 01:10:17;;;;;;;4.17;2.93;;;22.20;52.30;;;-142.21;60.81;112049.66;5113729;28;20231;-78
2022/07/15 01:12:47;;;;;;;4.23;3.40;;;22.20;52.30;;;-142.21;61.55;112049.66;5114262;28;20242;-78
2022/07/15 01:15:17;;;;;;;3.10;2.80;;;22.20;52.50;;;-142.21;61.94;112049.66;5074634;28;20228;-78
2022/07/15 01:17:46;;;;;;;3.40;2.90;;;22.10;53.30;;;-142.21;62.97;112049.66;5094052;28;20599;-78
2022/07/15 01:20:16;;;;;;;5.53;2.77;;;22.10;52.90;;;-142.21;63.58;112049.66;5096781;28;20262;-79
2022/07/15 01:22:44;;;;;;;5.10;3.57;;;22.00;53.00;;;-142.21;63.70;112049.66;5114405;28;20567;-79
2022/07/15 01:25:12;;;;;;;4.07;3.13;;;22.00;53.10;;;-142.21;64.61;112049.66;5113007;28;20249;-78
2022/07/15 01:27:40;;;;;;;3.27;2.97;;;21.90;53.30;;;-142.21;64.62;112049.66;5114489;28;20303;-78
2022/07/15 01:30:09;;;;;;;3.20;2.90;;;21.90;53.30;;;-142.21;65.03;112049.66;5113997;28;20196;-78
2022/07/15 01:32:37;;;;;;;5.30;3.20;;;21.90;53.50;;;-142.21;65.93;112049.66;5095582;28;20210;-79
2022/07/15 01:35:05;;;;;;;3.20;2.83;;;21.90;53.70;;;-142.21;66.21;112049.66;5113772;28;20203;-79
2022/07/15 01:37:32;;;;;;;4.03;3.13;;;21.80;53.80;;;-142.21;66.05;112049.66;5095392;28;20282;-79
2022/07/15 01:40:01;;;;;;;3.53;3.13;;;21.80;54.00;;;-142.21;66.92;112049.66;5113809;28;20228;-78
2022/07/15 01:42:28;;;;;;;3.57;3.27;;;21.70;54.00;;;-142.21;67.37;112049.66;5113332;28;20635;-79
2022/07/15 01:44:55;;;;;;;3.43;3.00;;;21.70;54.00;;;-142.21;67.52;112049.66;5095583;28;20235;-78
2022/07/15 01:47:22;;;;;;;5.47;3.07;;;21.70;54.00;;;-142.21;67.29;112049.66;5112694;28;20314;-79
2022/07/15 01:49:49;;;;;;;3.60;3.03;;;21.60;53.90;;;-142.21;67.32;112049.66;5113425;28;20224;-79
2022/07/15 01:52:17;;;;;;;3.70;3.13;;;21.60;54.00;;;-142.21;67.81;112049.66;5113202;28;20209;-79
2022/07/15 01:54:44;;;;;;;3.57;3.00;;;21.50;54.10;;;-142.21;68.60;112049.66;5113077;28;20211;-78
2022/07/15 01:57:13;;;;;;;3.53;3.10;;;21.40;54.90;;;-142.21;68.25;112049.66;5113394;28;20204;-79
2022/07/15 01:59:41;;;;;;;3.63;3.00;;;21.40;54.30;;;-142.21;68.82;112049.66;5113316;28;20231;-77
2022/07/15 02:02:08;;;;;;;3.40;2.80;;;21.30;54.40;;;-142.21;69.67;112049.66;5112947;28;20303;-78
2022/07/15 02:04:36;;;;;;;3.33;3.03;;;21.30;54.50;;;-142.21;68.53;112049.66;5113101;28;20242;-78
2022/07/15 02:07:04;;;;;;;3.50;3.00;;;21.20;54.30;;;-142.21;69.56;112049.66;5113462;28;20196;-79
2022/07/15 02:09:31;;;;;;;5.23;3.30;;;21.10;54.30;;;-142.21;69.33;112049.66;5094455;28;20266;-79
2022/07/15 02:11:59;;;;;;;3.20;2.90;;;21.10;54.40;;;-142.21;69.75;112049.66;5113298;28;20192;-78
2022/07/15 02:14:27;;;;;;;3.57;2.90;;;21.10;54.30;;;-142.21;69.13;112049.66;5094623;28;20199;-79
2022/07/15 02:16:55;;;;;;;3.20;2.90;;;21.10;54.30;;;-142.21;69.18;112049.66;5112998;28;20295;-79
2022/07/15 02:19:22;;;;;;;3.30;3.00;;;21.00;54.40;;;-142.21;68.94;112049.66;5095397;28;20200;-78
2022/07/15 02:21:50;;;;;;;6.67;3.20;;;20.90;54.50;;;-142.21;69.73;112049.66;5094380;28;20230;-78
2022/07/15 02:24:18;;;;;;;3.43;2.90;;;21.00;54.70;;;-142.21;71.25;112049.66;5112503;28;20290;-79
2022/07/15 02:26:45;;;;;;;3.43;2.87;;;20.90;55.70;;;-142.21;72.40;112049.66;5111618;28;20245;-79
2022/07/15 02:29:13;;;;;;;3.73;3.40;;;20.90;55.50;;;-142.21;72.60;112049.66;5111465;28;20199;-79
2022/07/15 02:31:42;;;;;;;3.40;2.80;;;20.80;55.40;;;-142.21;72.09;112049.66;5112114;28;20223;-79
2022/07/15 02:34:10;;;;;;;3.90;3.00;;;20.80;55.50;;;-142.21;72.38;112049.66;5112644;28;20281;-79
2022/07/15 02:36:38;;;;;;;3.37;3.07;;;20.70;55.40;;;-142.21;72.85;112049.66;5112605;28;20294;-79
2022/07/15 02:39:05;;;;;;;4.60;3.03;;;20.70;55.60;;;-142.21;72.84;112049.66;5112331;28;20238;-78
2022/07/15 02:41:32;;;;;;;4.70;3.20;;;20.70;55.60;;;-142.21;73.50;112049.66;5111604;28;20309;-79
2022/07/15 02:44:02;;;;;;;5.13;3.20;;;20.70;55.80;;;-142.21;74.07;112049.66;5112407;28;20207;-79
2022/07/15 02:46:29;;;;;;;3.63;3.33;;;20.60;55.90;;;-142.21;74.25;112049.66;5105761;28;20253;-79
2022/07/15 02:48:57;;;;;;;4.33;3.47;;;20.60;56.00;;;-142.21;73.70;112049.66;5112584;28;20310;-79
2022/07/15 02:51:25;;;;;;;3.30;2.93;;;20.50;55.80;;;-142.21;74.02;112049.66;5111785;28;20282;-79
2022/07/15 02:53:52;;;;;;;3.43;3.03;;;20.50;56.00;;;-142.21;74.26;112049.66;5112392;28;20592;-79
2022/07/15 02:56:19;;;;;;;4.70;3.60;;;20.50;56.30;;;-142.21;74.86;112049.66;5111683;28;20235;-79
2022/07/15 02:58:46;;;;;;;4.23;3.33;;;20.40;56.30;;;-142.21;75.10;112049.66;5111781;28;20532;-80
2022/07/15 03:01:13;;;;;;;4.60;3.40;;;20.40;56.30;;;-142.21;75.09;112049.66;5110959;28;20246;-80
2022/07/15 03:03:40;;;;;;;3.63;3.03;;;20.40;56.50;;;-142.21;76.20;112049.66;5111777;28;20740;-79
2022/07/15 03:06:09;;;;;;;3.70;3.30;;;20.30;57.10;;;-142.21;76.54;112049.66;5112455;28;20192;-79
2022/07/15 03:08:36;;;;;;;5.00;3.20;;;20.30;56.90;;;-142.21;76.92;112049.66;5093523;28;20228;-79
2022/07/15 03:11:03;;;;;;;4.77;2.90;;;20.20;56.90;;;-142.21;77.32;112049.66;5111691;28;20235;-79
2022/07/15 03:13:31;;;;;;;5.50;2.77;;;20.20;57.10;;;-142.21;76.98;112049.66;5110938;28;20207;-79
2022/07/15 03:15:58;;;;;;;4.33;3.20;;;20.20;57.20;;;-142.21;77.08;112049.66;5112264;28;20231;-79
2022/07/15 03:18:25;;;;;;;3.50;3.20;;;20.20;57.30;;;-142.21;77.73;112049.66;5111215;28;20238;-79
2022/07/15 03:20:52;;;;;;;4.07;2.93;;;20.20;57.40;;;-142.21;77.18;112049.66;5112118;28;20254;-79
2022/07/15 03:23:21;;;;;;;3.27;2.97;;;20.10;57.50;;;-142.21;77.02;112049.66;5111744;28;20210;-79
2022/07/15 03:25:49;;;;;;;4.00;3.03;;;20.10;57.70;;;-142.21;77.70;112049.66;5111586;28;20295;-79
2022/07/15 03:28:19;;;;;;;3.27;2.80;;;20.10;57.40;;;-142.21;77.16;112049.66;5111718;28;20199;-80
2022/07/15 03:30:46;;;;;;;3.30;3.00;;;20.10;57.30;;;-142.21;77.16;112049.66;5112405;28;20196;-80
2022/07/15 03:33:13;;;;;;;3.57;3.27;;;20.00;57.20;;;-142.21;77.20;112049.66;5112438;28;20283;-78
2022/07/15 03:35:41;;;;;;;4.00;3.17;;;20.00;57.40;;;-142.21;77.92;112049.66;5093960;28;20196;-78
2022/07/15 03:38:09;;;;;;;3.87;3.27;;;20.00;57.30;;;-142.21;78.51;112049.66;5111753;28;20227;-79
2022/07/15 03:40:37;;;;;;;4.07;3.30;;;19.90;57.40;;;-142.21;78.33;112049.66;5113734;28;20223;-79
2022/07/15 03:43:04;;;;;;;4.27;3.10;;;19.90;57.50;;;-142.21;78.42;112049.66;5115735;28;20204;-80
2022/07/15 03:45:32;;;;;;;3.30;3.00;;;19.90;57.60;;;-142.21;78.77;112049.66;5115624;28;20206;-80
2022/07/15 03:47:59;;;;;;;3.67;3.20;;;19.90;57.90;;;-142.21;79.46;112049.66;5098016;28;20278;-79
2022/07/15 03:50:26;;;;;;;4.17;3.30;;;19.80;57.80;;;-142.21;79.76;112049.66;5114921;28;20310;-79
2022/07/15 03:52:53;;;;;;;4.80;3.40;;;19.80;58.40;;;-142.21;79.87;112049.66;5115889;28;20649;-79
2022/07/15 03:55:20;;;;;;;4.30;3.30;;;19.80;57.80;;;-142.21;79.36;112049.66;5115265;28;20192;-80
2022/07/15 03:57:49;;;;;;;3.37;3.07;;;19.70;57.80;;;-142.21;79.81;112049.66;5116025;28;20298;-79
2022/07/15 04:00:17;;;;;;;5.03;3.20;;;19.80;57.90;;;-142.21;79.03;112049.66;5114905;28;20227;-79
2022/07/15 04:02:44;;;;;;;3.47;3.17;;;19.70;57.80;;;-142.21;79.05;112049.66;5114859;28;20251;-76
2022/07/15 04:05:11;;;;;;;4.73;3.37;;;19.80;57.80;;;-142.21;79.31;112049.66;5115104;28;20204;-75
2022/07/15 04:07:39;;;;;;;3.37;2.90;;;19.80;57.90;;;-142.21;80.01;112049.66;5115541;28;20200;-80
2022/07/15 04:10:08;;;;;;;5.93;3.73;;;19.80;58.00;;;-142.21;81.71;112049.66;5114881;28;20315;-79
2022/07/15 04:12:35;;;;;;;5.07;4.13;;;19.70;58.50;;;-142.21;81.82;112049.66;5096616;28;20227;-80
2022/07/15 04:15:05;;;;;;;4.27;3.17;;;19.70;58.60;;;-142.21;81.83;112049.66;5115593;28;20303;-78
2022/07/15 04:17:32;;;;;;;4.63;3.30;;;19.70;58.90;;;-142.21;82.00;112049.66;5114797;28;20554;-76
2022/07/15 04:20:03;;;;;;;4.17;3.20;;;19.70;58.90;;;-142.21;82.47;112049.66;5115298;28;20644;-76
2022/07/15 04:22:31;;;;;;;3.43;3.13;;;19.60;58.90;;;-142.21;83.22;112049.66;5097564;28;20261;-77
2022/07/15 04:24:58;;;;;;;3.70;3.33;;;19.70;59.30;;;-142.21;83.33;112049.66;5115046;28;20291;-77
2022/07/15 04:27:25;;;;;;;5.93;3.27;;;19.60;59.20;;;-142.21;82.96;112049.66;5114317;28;20688;-77
2022/07/15 04:29:53;;;;;;;4.17;3.53;;;19.70;59.40;;;-142.21;82.84;112049.66;5115012;28;20282;-77
2022/07/15 04:32:21;;;;;;;3.80;3.37;;;19.70;59.30;;;-142.21;81.90;112049.66;5114512;28;20696;-77
2022/07/15 04:34:48;;;;;;;4.43;3.87;;;19.80;59.30;;;-142.21;82.65;112049.66;5115193;28;20195;-76
2022/07/15 04:37:15;;;;;;;8.50;3.83;;;19.80;59.20;;;-142.21;83.66;112049.66;5114657;28;20290;-77
2022/07/15 04:39:42;;;;;;;8.07;4.07;;;19.80;59.40;;;-142.21;85.00;112049.66;5114161;28;20634;-79
2022/07/15 04:42:10;;;;;;;9.50;4.87;;;19.80;60.10;;;-142.21;84.21;112049.66;5114774;28;20731;-79
2022/07/15 04:44:37;;;;;;;7.07;5.10;;;19.80;59.80;;;-142.21;85.93;112049.66;5114118;28;20232;-76
2022/07/15 04:47:04;;;;;;;4.97;4.00;;;19.80;60.50;;;-142.21;85.07;112049.66;5115171;28;20200;-77
2022/07/15 04:52:17;;;;;;;4.63;3.70;;;19.80;59.50;;;-142.21;82.51;112049.66;5114101;28;20199;-77
2022/07/15 04:54:45;;;;;;;5.17;4.10;;;19.90;59.30;;;-142.21;83.71;112049.66;5114301;28;20227;-76
2022/07/15 04:57:12;;;;;;;13.27;5.47;;;19.90;59.70;;;-142.21;84.66;112049.66;5115098;28;20272;-79
2022/07/15 04:59:39;;;;;;;11.63;5.07;;;19.90;60.00;;;-142.21;85.21;112049.66;5113966;28;20204;-76
2022/07/15 05:02:06;;;;;;;5.63;4.00;;;20.00;60.30;;;-142.21;84.30;112049.66;5114429;28;20656;-80
2022/07/15 05:04:35;;;;;;;4.87;3.80;;;20.00;59.90;;;-142.21;84.78;112049.66;5113745;28;20235;-76
2022/07/15 05:07:03;;;;;;;5.20;4.20;;;20.00;60.00;;;-142.21;85.37;112049.66;5114085;28;20238;-80
2022/07/15 05:09:30;;;;;;;6.10;4.57;;;20.10;60.40;;;-142.21;85.58;112049.66;5113049;28;20327;-80
2022/07/15 05:11:57;;;;;;;4.03;3.63;;;20.10;60.40;;;-142.21;85.63;112049.66;5096501;28;20194;-80
2022/07/15 05:14:26;;;;;;;5.77;4.17;;;20.10;60.20;;;-142.21;85.89;112049.66;5113854;28;20287;-80
2022/07/15 05:16:53;;;;;;;4.57;4.10;;;20.10;60.40;;;-142.21;86.32;112049.66;5113758;28;20200;-78
2022/07/15 05:19:20;;;;;;;4.63;3.97;;;20.10;60.40;;;-142.21;86.52;112049.66;5113695;28;20651;-77
2022/07/15 05:21:49;;;;;;;4.70;4.30;;;20.10;60.50;;;-142.21;86.25;112049.66;5113992;28;20315;-80
2022/07/15 05:24:16;;;;;;;4.03;3.67;;;20.20;60.70;;;-142.21;86.28;112049.66;5113871;28;20204;-76
2022/07/15 05:26:43;;;;;;;5.03;4.20;;;20.20;60.50;;;-142.21;87.39;112049.66;5112952;28;20278;-77
2022/07/15 05:29:10;;;;;;;6.00;4.33;;;20.30;61.30;;;-142.21;87.31;112049.66;5114283;28;20199;-80
2022/07/15 05:31:37;;;;;;;4.90;3.90;;;20.30;61.00;;;-142.21;86.61;112049.66;5113636;28;20195;-80
2022/07/15 05:34:05;;;;;;;5.23;4.50;;;20.40;60.90;;;-142.21;85.75;112049.66;5114196;28;20287;-80
2022/07/15 05:36:32;;;;;;;4.13;3.73;;;20.50;60.50;;;-142.21;84.80;112049.66;5113155;28;20199;-79
2022/07/15 05:39:01;;;;;;;4.80;4.30;;;20.60;60.20;;;-142.21;83.43;112049.66;5113433;28;20220;-79
2022/07/15 05:41:28;;;;;;;4.60;3.57;;;20.60;59.70;;;-142.21;83.16;112049.66;5112933;28;20251;-78
2022/07/15 05:43:55;;;;;;;4.77;3.60;;;20.70;59.40;;;-142.21;81.93;112049.66;5113661;28;20664;-79
2022/07/15 05:46:22;;;;;;;5.37;3.60;;;20.70;59.10;;;-142.21;83.14;112049.66;5112856;28;20195;-80
2022/07/15 05:48:49;;;;;;;4.33;3.70;;;20.90;59.40;;;-142.21;83.23;112049.66;5113218;28;20254;-80
2022/07/15 05:51:17;;;;;;;3.83;3.43;;;20.90;59.60;;;-142.21;81.54;112049.66;5114091;28;20284;-79
2022/07/15 05:53:44;;;;;;;3.63;2.90;;;21.00;59.00;;;-142.21;79.71;112049.66;5112575;28;20291;-80
2022/07/15 05:56:12;;;;;;;4.80;3.00;;;21.10;58.40;;;-142.21;79.01;112049.66;5113606;28;20196;-79
2022/07/15 05:58:40;;;;;;;2.80;2.60;;;21.20;58.30;;;-142.21;78.58;112049.66;5113222;28;20290;-79
2022/07/15 06:01:07;;;;;;;3.63;2.80;;;21.30;58.60;;;-142.21;77.75;112049.66;5112986;28;20275;-77
2022/07/15 06:03:34;;;;;;;4.70;2.90;;;21.40;57.70;;;-142.21;77.94;112049.66;5111704;28;20686;-78
2022/07/15 06:06:01;;;;;;;2.93;2.47;;;21.50;57.70;;;-142.21;73.97;112049.66;5113223;28;20195;-76
2022/07/15 06:08:28;;;;;;;4.93;2.33;;;21.60;56.90;;;-142.21;72.56;112049.66;5112509;28;20652;-79
2022/07/15 06:10:56;;;;;;;2.90;2.30;;;21.70;56.20;;;-142.21;70.96;112049.66;5112230;28;20318;-77
2022/07/15 06:13:25;;;;;;;3.77;2.30;;;21.70;55.60;;;-142.21;70.48;112049.66;5112133;28;20217;-78
2022/07/15 06:15:52;;;;;;;2.77;2.40;;;21.80;55.70;;;-142.21;66.72;112049.66;5113320;28;20292;-79
2022/07/15 06:18:19;;;;;;;4.03;2.30;;;21.90;54.40;;;-142.21;65.02;112049.66;5112079;28;20239;-78
2022/07/15 06:20:46;;;;;;;3.33;2.10;;;22.00;54.00;;;-142.21;64.95;112049.66;5105285;28;20374;-78
2022/07/15 06:23:14;;;;;;;3.33;2.30;;;22.00;54.00;;;-142.21;62.43;112049.66;5112636;28;20718;-79
2022/07/15 06:25:42;;;;;;;2.60;1.90;;;22.20;53.50;;;-142.21;60.02;112049.66;5111744;28;20223;-76
2022/07/15 06:28:09;;;;;;;2.93;2.10;;;22.20;52.80;;;-142.21;60.64;112049.66;5112230;28;20273;-76
2022/07/15 06:30:38;;;;;;;2.70;2.07;;;22.20;52.80;;;-142.21;58.74;112049.66;5112492;28;20215;-75
2022/07/15 06:33:05;;;;;;;3.20;2.00;;;22.30;52.30;;;-142.21;59.26;112049.66;5112700;28;20219;-75
2022/07/15 06:35:32;;;;;;;2.97;2.10;;;22.40;52.40;;;-142.21;59.53;112049.66;5112359;28;20299;-76
2022/07/15 06:37:59;;;;;;;2.43;2.23;;;22.50;52.30;;;-142.21;59.20;112049.66;5112506;28;20614;-76
2022/07/15 06:40:26;;;;;;;2.33;2.03;;;22.60;52.10;;;-142.21;60.11;112049.66;5112397;28;20299;-74
2022/07/15 06:42:54;;;;;;;3.03;2.00;;;22.70;52.30;;;-142.21;58.70;112049.66;5112159;28;20263;-76
2022/07/15 06:45:21;;;;;;;2.50;2.20;;;22.80;51.80;;;-142.21;59.06;112049.66;5111557;28;20196;-76
2022/07/15 06:47:49;;;;;;;4.60;2.07;;;22.90;51.90;;;-142.21;58.14;112049.66;5091765;28;20232;-76
2022/07/15 06:50:17;;;;;;;2.90;1.90;;;23.00;51.80;;;-142.21;56.56;112049.66;5112406;27;20323;-76
2022/07/15 06:52:44;;;;;;;2.90;1.70;;;23.00;51.30;;;-142.21;56.64;112049.66;5132780;27;20275;-76
2022/07/15 06:55:11;;;;;;;3.47;1.83;;;23.10;51.30;;;-142.21;54.46;112049.66;5112866;27;20196;-76
2022/07/15 06:57:40;;;;;;;2.03;1.80;;;23.10;50.70;;;-142.21;53.19;112049.66;5111994;28;20552;-75
2022/07/15 07:00:09;;;;;;;2.47;1.70;;;23.20;50.30;;;-142.21;52.74;112049.66;5112278;28;20661;-75
2022/07/15 07:02:37;;;;;;;2.23;2.03;;;23.30;50.10;;;-142.21;53.09;112049.66;5111609;28;20217;-76
2022/07/15 07:05:08;;;;;;;2.27;1.90;;;23.40;50.30;;;-142.21;52.76;112049.66;5111906;28;20223;-75
2022/07/15 07:07:35;;;;;;;2.70;1.70;;;23.50;50.10;;;-142.21;53.17;112049.66;5111657;28;20231;-76
2022/07/15 07:10:03;;;;;;;2.10;1.90;;;23.60;50.10;;;-142.21;52.07;112049.66;5112270;28;20323;-75
2022/07/15 07:12:31;;;;;;;2.93;1.80;;;23.60;49.80;;;-142.21;51.75;112049.66;5111404;28;20202;-75
2022/07/15 07:15:00;;;;;;;2.27;1.77;;;23.80;49.60;;;-142.21;50.68;112049.66;5111497;28;20210;-75
2022/07/15 07:17:28;;;;;;;4.43;1.90;;;23.80;49.10;;;-142.21;51.72;112049.66;5111978;28;20237;-75
2022/07/15 07:19:55;;;;;;;3.50;2.00;;;24.00;49.50;;;-142.21;51.94;112049.66;5111858;28;20199;-76
2022/07/15 07:22:24;;;;;;;3.70;2.40;;;24.10;49.50;;;-142.21;50.93;112049.66;5112353;28;20268;-74
2022/07/15 07:24:53;;;;;;;3.37;1.83;;;24.10;49.00;;;-142.21;50.85;112049.66;5111330;28;20297;-76
2022/07/15 07:27:20;;;;;;;2.30;1.70;;;24.20;48.90;;;-142.21;48.74;112049.66;5110867;28;20206;-76
2022/07/15 07:29:50;;;;;;;3.60;2.07;;;24.30;48.30;;;-142.21;48.31;112049.66;5111357;28;20526;-75
2022/07/15 07:32:19;;;;;;;2.17;1.80;;;24.40;48.40;;;-142.21;47.58;112049.66;5106738;28;20606;-75
2022/07/15 07:34:46;;;;;;;3.37;2.00;;;24.40;47.80;;;-142.21;47.47;112049.66;5099226;28;20287;-75
2022/07/15 07:37:13;;;;;;;1.90;1.80;;;24.50;47.80;;;-142.21;47.68;112049.66;5093800;28;20204;-76
2022/07/15 07:39:42;;;;;;;3.00;1.97;;;24.60;47.90;;;-142.21;46.98;112049.66;5111172;28;20206;-75
2022/07/15 07:42:09;;;;;;;2.40;1.53;;;24.60;47.60;;;-142.21;46.19;112049.66;5112050;28;20622;-75
2022/07/15 07:44:37;;;;;;;3.67;1.80;;;24.70;47.60;;;-142.21;46.41;112049.66;5092546;28;20282;-76
2022/07/15 07:47:04;;;;;;;1.70;1.60;;;24.90;47.40;;;-142.21;45.68;112049.66;5111537;28;20204;-75
2022/07/15 07:49:31;;;;;;;2.53;2.00;;;24.90;47.00;;;-142.21;45.43;112049.66;5110618;28;20251;-75
2022/07/15 07:51:59;;;;;;;1.60;1.43;;;25.10;46.90;;;-142.21;43.55;112049.66;5111104;28;20631;-75
2022/07/15 07:54:26;;;;;;;2.97;1.63;;;25.10;45.90;;;-142.21;43.53;112049.66;5111760;28;20199;-75
2022/07/15 07:56:55;;;;;;;2.43;1.80;;;25.20;45.80;;;-142.21;42.89;112049.66;5110973;28;20199;-75
2022/07/15 07:59:22;;;;;;;3.53;1.80;;;25.30;45.20;;;-142.21;43.67;112049.66;5111594;28;20195;-76
2022/07/15 08:01:50;;;;;;;3.97;1.87;;;25.40;45.60;;;-142.21;42.62;112049.66;5111103;28;20605;-75
2022/07/15 08:04:20;;;;;;;2.73;1.37;;;25.50;45.30;;;-142.21;42.82;112049.66;5111248;28;20618;-75
2022/07/15 08:06:47;;;;;;;1.80;1.70;;;25.60;45.20;;;-142.21;42.73;112049.66;5090535;28;20240;-75
2022/07/15 08:09:14;;;;;;;3.47;1.67;;;25.60;44.90;;;-142.21;41.41;112049.66;5094642;28;20199;-75
2022/07/15 08:11:42;;;;;;;3.47;1.50;;;25.70;44.00;;;-142.21;41.41;112049.66;5092941;28;20192;-75
2022/07/15 08:14:11;;;;;;;2.27;1.70;;;25.80;44.10;;;-142.21;41.73;112049.66;5111344;28;20207;-75
2022/07/15 08:16:42;;;;;;;2.20;1.50;;;25.90;44.30;;;-142.21;41.10;112049.66;5111298;28;20257;-75
2022/07/15 08:19:13;;;;;;;1.60;1.10;;;26.00;44.00;;;-142.21;40.91;112049.66;5110951;28;20192;-75
2022/07/15 08:21:43;;;;;;;2.67;1.70;;;26.10;44.20;;;-142.21;40.28;112049.66;5111028;28;20192;-75
2022/07/15 08:24:12;;;;;;;2.13;1.80;;;26.20;43.30;;;-142.21;40.05;112049.66;5111165;28;20299;-75
2022/07/15 08:26:40;;;;;;;1.50;1.40;;;26.30;43.10;;;-142.21;40.03;112049.66;5106878;28;20202;-75
2022/07/15 08:29:07;;;;;;;2.60;1.70;;;26.40;42.90;;;-142.21;40.10;112049.66;5114995;28;20290;-75
2022/07/15 08:31:37;;;;;;;3.87;1.77;;;26.40;42.80;;;-142.21;39.60;112049.66;5114369;28;20199;-75
2022/07/15 08:34:05;;;;;;;2.03;1.50;;;26.60;43.40;;;-142.21;39.57;112049.66;5115128;28;20592;-75
2022/07/15 08:36:32;;;;;;;4.10;1.40;;;26.70;42.70;;;-142.21;38.34;112049.66;5114745;28;20624;-75
2022/07/15 08:39:00;;;;;;;2.63;1.50;;;26.80;42.00;;;-142.21;38.51;112049.66;5115104;28;20195;-75
2022/07/15 08:41:27;;;;;;;1.67;1.50;;;26.80;41.60;;;-142.21;38.50;112049.66;5114161;28;20697;-74
2022/07/15 08:43:55;;;;;;;3.53;1.60;;;26.90;41.90;;;-142.21;37.94;112049.66;5113916;27;20220;-75
2022/07/15 08:46:26;;;;;;;1.83;1.30;;;27.00;41.70;;;-142.21;38.12;112049.66;5114967;28;20195;-75
2022/07/15 08:49:05;;;;;;;1.93;1.40;;;27.00;41.30;;;-142.21;37.08;112049.66;5114493;28;20228;-75
2022/07/15 08:51:38;;;;;;;2.97;1.73;;;27.10;40.80;;;-142.21;37.56;112049.66;5113845;28;20189;-75
2022/07/15 08:54:06;;;;;;;2.67;1.40;;;27.10;40.70;;;-142.21;37.00;112049.66;5097639;28;20196;-76
2022/07/15 08:56:35;;;;;;;1.97;1.53;;;27.20;40.50;;;-142.21;36.81;112049.66;5114478;28;20213;-75
2022/07/15 08:59:04;;;;;;;2.07;1.50;;;27.20;40.50;;;-142.21;36.80;112049.66;5117662;27;20192;-75
2022/07/15 09:01:33;;;;;;;2.73;1.70;;;27.30;40.10;;;-142.21;37.15;112049.66;5098711;28;20214;-76
2022/07/15 09:04:02;;;;;;;4.23;1.67;;;27.30;41.00;;;-142.21;36.99;112049.66;5114486;28;20232;-75
2022/07/15 09:06:35;;;;;;;2.10;1.40;;;27.40;40.30;;;-142.21;37.30;112049.66;5114706;28;20539;-76
2022/07/15 09:09:28;;;;;;;2.63;1.40;;;27.50;40.20;;;-142.21;38.08;112049.66;5114363;28;20204;-75
2022/07/15 09:12:05;;;;;;;2.07;1.87;;;27.60;40.90;;;-142.21;36.43;112049.66;5113665;28;20195;-74
2022/07/15 09:14:36;;;;;;;2.43;1.57;;;27.70;39.70;;;-142.21;36.75;112049.66;5113998;28;20237;-76
2022/07/15 09:17:21;;;;;;;2.80;1.63;;;27.80;39.80;;;-142.21;36.81;112049.66;5113160;28;20295;-75
2022/07/15 09:20:03;;;;;;;2.07;1.80;;;27.90;40.20;;;-142.21;36.56;112049.66;5113673;28;20190;-75
2022/07/15 09:22:33;;;;;;;4.47;1.80;;;28.00;39.70;;;-142.21;36.21;112049.66;5113801;28;20231;-75
2022/07/15 09:25:09;;;;;;;2.60;1.60;;;28.10;40.20;;;-142.21;36.78;112049.66;5113585;28;20204;-75
2022/07/15 09:27:39;;;;;;;2.57;1.70;;;28.10;39.50;;;-142.21;36.08;112049.66;5113558;28;20270;-75
2022/07/15 09:36:08;;;;;;;2.10;1.70;;;28.30;38.40;;;-142.21;36.06;112049.66;5112950;28;20620;-76
2022/07/15 09:38:43;;;;;;;1.97;1.43;;;28.40;39.20;;;-142.21;36.33;112049.66;5112431;28;20642;-74
2022/07/15 09:41:36;;;;;;;2.27;1.63;;;28.40;38.90;;;-142.21;35.50;112049.66;5113974;28;20232;-75
2022/07/15 09:44:06;;;;;;;2.57;1.70;;;28.50;37.70;;;-142.21;35.80;112049.66;5113812;28;20264;-75
2022/07/15 09:46:48;;;;;;;2.23;1.40;;;28.60;38.80;;;-142.21;34.99;112049.66;5113447;28;20242;-75
2022/07/15 09:49:18;;;;;;;4.03;1.80;;;28.60;37.90;;;-142.21;35.98;112049.66;5112869;28;20305;-74
2022/07/15 09:51:50;;;;;;;1.80;1.70;;;28.70;38.90;;;-142.21;36.06;112049.66;5094835;28;20324;-76
2022/07/15 09:54:19;;;;;;;4.00;1.40;;;28.80;40.00;;;-142.21;35.20;112049.66;5113325;28;20640;-77
2022/07/15 09:56:47;;;;;;;4.33;1.87;;;28.90;38.30;;;-142.21;34.77;112049.66;5113238;28;20608;-74
2022/07/15 09:59:16;;;;;;;1.73;1.50;;;28.90;38.00;;;-142.21;34.61;112049.66;5112795;28;20295;-74
2022/07/15 10:01:47;;;;;;;2.27;1.50;;;28.90;37.70;;;-142.21;35.56;112049.66;5112524;28;20246;-74
2022/07/15 10:04:17;;;;;;;3.03;1.70;;;29.00;38.40;;;-142.21;34.61;112049.66;5113178;28;20268;-75
2022/07/15 10:06:50;;;;;;;2.13;1.70;;;29.00;37.70;;;-142.21;34.63;112049.66;5112622;28;20182;-77
2022/07/15 10:09:24;;;;;;;2.50;1.67;;;29.00;37.80;;;-142.21;34.22;112049.66;5113233;28;20201;-75
2022/07/15 10:11:57;;;;;;;4.00;1.80;;;29.10;37.10;;;-142.21;35.11;112049.66;5111240;28;20196;-74
2022/07/15 10:14:53;;;;;;;2.07;1.60;;;29.20;37.80;;;-142.21;34.45;112049.66;5112212;28;20660;-74